Terminal Aerodrome Forecast
Issued by NWS

Home | Current Version | Previous Version | Text Only | Print | Product List | Glossary On
Versions: 1 2 3 4 5 6 7 8 9 10 11 12 13 14 15 16 17 18 19 20 21 22 23 24 25 26 27 28 29 30 31 32 33 34 35 36
000
FTUS43 KDLH 011700
TAFHIB
TAF
KHIB 011740Z 0118/0218 15009KT 4SM -RA OVC005
     FM020200 18004KT 4SM BR SCT008 OVC050
     FM021000 27004KT 2SM BR OVC010
      TEMPO 0210/0213 1/2SM FG OVC001
     FM021300 30003KT 4SM BR OVC015
     FM021600 30004KT P6SM OVC050=

USA.gov is the U.S. government's official web portal to all federal, state and local government web resources and services.